createdAt,value
2023-02-25T00:02:09.633Z,95522.31
2023-02-25T00:04:40.748Z,95518.81
2023-02-25T00:07:10.140Z,95521.69
2023-02-25T00:09:38.996Z,95530.28
2023-02-25T00:12:08.347Z,95524.56
2023-02-25T00:14:36.916Z,95531.41
2023-02-25T00:17:05.655Z,95533.13
2023-02-25T00:19:34.209Z,95527.41
2023-02-25T00:22:04.055Z,95517.06
2023-02-25T00:24:32.815Z,95524.09
2023-02-25T00:27:01.664Z,95524.72
2023-02-25T00:29:30.360Z,95525.03
2023-02-25T00:31:59.248Z,95533.91
2023-02-25T00:34:28.634Z,95532.97
2023-02-25T00:36:58.130Z,95527.41
2023-02-25T00:39:42.891Z,95531.56
2023-02-25T00:42:12.669Z,95542.34
2023-02-25T00:44:41.941Z,95526.31
2023-02-25T00:47:10.387Z,95537.44
2023-02-25T00:49:39.822Z,95514.84
2023-02-25T00:52:08.796Z,95526.13
2023-02-25T00:54:39.603Z,95530.44
2023-02-25T00:57:08.513Z,95539.00
2023-02-25T00:59:37.501Z,95541.19
2023-02-25T01:02:06.815Z,95547.22
2023-02-25T01:04:35.345Z,95543.41
2023-02-25T01:07:04.018Z,95535.09
2023-02-25T01:09:34.289Z,95540.81
2023-02-25T01:12:04.937Z,95540.78
2023-02-25T01:14:33.714Z,95529.50
2023-02-25T01:17:03.878Z,95548.75
2023-02-25T01:19:32.300Z,95544.59
2023-02-25T01:22:00.986Z,95542.19
2023-02-25T01:24:31.887Z,95542.97
2023-02-25T01:27:04.504Z,95550.59
2023-02-25T01:29:37.110Z,95551.59
2023-02-25T01:32:11.335Z,95541.56
2023-02-25T01:34:41.183Z,95546.66
2023-02-25T01:37:09.966Z,95542.13
2023-02-25T01:39:41.483Z,95544.81
2023-02-25T01:42:16.822Z,95541.50
2023-02-25T01:45:24.612Z,95549.75
2023-02-25T01:48:01.165Z,95558.66
2023-02-25T01:50:40.956Z,95554.19
2023-02-25T01:53:09.906Z,95562.13
2023-02-25T01:55:42.473Z,95554.06
2023-02-25T01:58:14.132Z,95555.22
2023-02-25T02:00:43.777Z,95540.31
2023-02-25T02:03:16.148Z,95546.38
2023-02-25T02:06:03.776Z,95550.00
2023-02-25T02:08:35.818Z,95554.13
2023-02-25T02:11:06.368Z,95559.69
2023-02-25T02:13:42.550Z,95571.59
2023-02-25T02:16:45.502Z,95563.00
2023-02-25T02:19:34.533Z,95567.94
2023-02-25T02:22:14.859Z,95566.34
2023-02-25T02:25:42.177Z,95567.13
2023-02-25T02:29:03.779Z,95565.25
2023-02-25T02:31:56.219Z,95551.28
2023-02-25T02:34:43.060Z,95546.53
2023-02-25T02:37:36.113Z,95548.13
2023-02-25T02:40:19.947Z,95560.16
2023-02-25T02:43:07.379Z,95559.56
2023-02-25T02:45:47.165Z,95566.22
2023-02-25T02:48:25.169Z,95570.84
2023-02-25T02:50:59.366Z,95573.69
2023-02-25T02:53:39.444Z,95575.63
2023-02-25T02:56:13.725Z,95575.22
2023-02-25T02:58:48.416Z,95571.06
2023-02-25T03:01:24.425Z,95591.81
2023-02-25T03:04:01.633Z,95575.44
2023-02-25T03:06:38.275Z,95588.78
2023-02-25T03:09:14.227Z,95587.78
2023-02-25T03:11:43.260Z,95586.97
2023-02-25T03:14:13.904Z,95593.16
2023-02-25T03:16:52.424Z,95602.78
2023-02-25T03:19:29.657Z,95594.16
2023-02-25T03:22:08.765Z,95590.63
2023-02-25T03:24:48.811Z,95588.56
2023-02-25T03:27:34.581Z,95598.31
2023-02-25T03:30:13.198Z,95600.75
2023-02-25T03:32:48.177Z,95602.34
2023-02-25T03:35:21.935Z,95612.16
2023-02-25T03:37:59.360Z,95616.88
2023-02-25T03:40:29.539Z,95622.28
2023-02-25T03:43:09.656Z,95622.16
2023-02-25T03:45:42.628Z,95644.13
2023-02-25T03:48:15.326Z,95638.91
2023-02-25T03:50:52.808Z,95639.69
2023-02-25T03:53:21.454Z,95645.88
2023-02-25T03:55:56.584Z,95643.56
2023-02-25T03:58:25.742Z,95647.75
2023-02-25T04:01:02.522Z,95654.72
2023-02-25T04:03:33.441Z,95647.75
2023-02-25T04:06:03.749Z,95660.81
2023-02-25T04:08:32.442Z,95658.44
2023-02-25T04:11:00.787Z,95651.84
2023-02-25T04:13:29.140Z,95659.38
2023-02-25T04:15:57.935Z,95655.22
2023-02-25T04:18:27.870Z,95662.13
2023-02-25T04:20:56.408Z,95654.84
2023-02-25T04:23:26.161Z,95660.72
2023-02-25T04:25:54.387Z,95668.91
2023-02-25T04:28:22.730Z,95658.22
2023-02-25T04:30:51.313Z,95665.63
2023-02-25T04:33:19.772Z,95665.94
2023-02-25T04:35:48.067Z,95655.53
2023-02-25T04:38:16.747Z,95660.09
2023-02-25T04:40:46.455Z,95659.94
2023-02-25T04:43:14.764Z,95649.94
2023-02-25T04:45:43.164Z,95652.22
2023-02-25T04:48:11.925Z,95662.72
2023-02-25T04:50:40.564Z,95662.06
2023-02-25T04:53:09.264Z,95664.69
2023-02-25T04:55:37.829Z,95664.03
2023-02-25T04:58:07.966Z,95667.78
2023-02-25T05:00:36.300Z,95671.00
2023-02-25T05:03:04.779Z,95671.91
2023-02-25T05:05:33.056Z,95677.19
2023-02-25T05:08:01.684Z,95687.00
2023-02-25T05:10:30.132Z,95688.41
2023-02-25T05:12:58.507Z,95690.41
2023-02-25T05:15:28.392Z,95694.41
2023-02-25T05:17:56.705Z,95696.72
2023-02-25T05:20:25.083Z,95694.22
2023-02-25T05:22:56.931Z,95691.16
2023-02-25T05:25:26.278Z,95683.59
2023-02-25T05:27:54.660Z,95677.00
2023-02-25T05:30:23.128Z,95675.41
2023-02-25T05:32:53.199Z,95675.63
2023-02-25T05:35:21.596Z,95683.00
2023-02-25T05:37:50.169Z,95670.53
2023-02-25T05:40:19.183Z,95680.69
2023-02-25T05:42:49.607Z,95685.28
2023-02-25T05:45:22.303Z,95687.19
2023-02-25T05:47:52.898Z,95688.78
2023-02-25T05:50:21.266Z,95698.16
2023-02-25T05:52:49.616Z,95702.19
2023-02-25T05:55:18.861Z,95711.97
2023-02-25T05:57:47.396Z,95710.38
2023-02-25T06:00:21.478Z,95712.56
2023-02-25T06:02:49.820Z,95715.06
2023-02-25T06:05:20.006Z,95711.28
2023-02-25T06:07:48.298Z,95713.97
2023-02-25T06:10:16.601Z,95709.78
2023-02-25T06:12:46.530Z,95714.66
2023-02-25T06:15:15.878Z,95711.97
2023-02-25T06:17:47.992Z,95711.28
2023-02-25T06:20:19.127Z,95712.66
2023-02-25T06:22:47.441Z,95713.44
2023-02-25T06:25:15.917Z,95720.25
2023-02-25T06:27:44.418Z,95719.94
2023-02-25T06:30:13.987Z,95715.97
2023-02-25T06:32:42.303Z,95726.44
2023-02-25T06:35:11.318Z,95730.72
2023-02-25T06:37:41.245Z,95731.53
2023-02-25T06:40:12.466Z,95742.63
2023-02-25T06:42:41.050Z,95746.72
2023-02-25T06:45:11.171Z,95749.41
2023-02-25T06:47:39.697Z,95740.13
2023-02-25T06:50:10.261Z,95756.91
2023-02-25T06:52:40.520Z,95749.78
2023-02-25T06:55:10.797Z,95748.69
2023-02-25T06:57:39.402Z,95760.19
2023-02-25T07:00:10.048Z,95766.47
2023-02-25T07:02:38.284Z,95776.38
2023-02-25T07:05:07.332Z,95766.50
2023-02-25T07:07:35.853Z,95773.28
2023-02-25T07:10:08.087Z,95772.88
2023-02-25T07:12:36.423Z,95774.75
2023-02-25T07:15:08.919Z,95778.28
2023-02-25T07:17:37.576Z,95777.97
2023-02-25T07:20:07.184Z,95782.34
2023-02-25T07:22:36.038Z,95777.75
2023-02-25T07:25:07.399Z,95775.38
2023-02-25T07:27:35.897Z,95782.06
2023-02-25T07:30:06.178Z,95774.47
2023-02-25T07:32:34.627Z,95766.97
2023-02-25T07:35:04.596Z,95760.56
2023-02-25T07:37:33.091Z,95752.84
2023-02-25T07:40:05.546Z,95766.88
2023-02-25T07:42:35.747Z,95769.44
2023-02-25T07:45:09.713Z,95758.25
2023-02-25T07:47:38.582Z,95761.25
2023-02-25T07:50:11.623Z,95765.25
2023-02-25T07:52:41.405Z,95768.81
2023-02-25T07:55:11.012Z,95761.22
2023-02-25T07:57:40.800Z,95763.41
2023-02-25T08:00:11.195Z,95763.41
2023-02-25T08:02:42.712Z,95766.41
2023-02-25T08:05:11.773Z,95769.03
2023-02-25T08:07:40.126Z,95762.28
2023-02-25T08:10:10.396Z,95749.19
2023-02-25T08:12:40.187Z,95755.13
2023-02-25T08:15:10.001Z,95756.31
2023-02-25T08:17:38.426Z,95751.94
2023-02-25T08:20:08.861Z,95762.06
2023-02-25T08:22:37.672Z,95766.28
2023-02-25T08:25:07.071Z,95766.28
2023-02-25T08:27:37.455Z,95770.59
2023-02-25T08:30:08.960Z,95765.97
2023-02-25T08:32:41.973Z,95767.19
2023-02-25T08:35:11.308Z,95762.63
2023-02-25T08:37:39.714Z,95771.53
2023-02-25T08:40:10.806Z,95770.94
2023-02-25T08:42:39.612Z,95768.69
2023-02-25T08:45:11.298Z,95775.06
2023-02-25T08:47:39.862Z,95778.84
2023-02-25T08:50:10.303Z,95775.69
2023-02-25T08:52:40.659Z,95779.47
2023-02-25T08:55:14.929Z,95779.84
2023-02-25T08:57:43.856Z,95789.31
2023-02-25T09:00:16.213Z,95790.50
2023-02-25T09:02:46.433Z,95784.75
2023-02-25T09:05:15.515Z,95787.19
2023-02-25T09:07:43.926Z,95789.38
2023-02-25T09:10:14.021Z,95796.13
2023-02-25T09:12:43.090Z,95786.88
2023-02-25T09:15:14.669Z,95784.88
2023-02-25T09:17:43.447Z,95778.84
2023-02-25T09:20:12.646Z,95786.22
2023-02-25T09:22:41.795Z,95781.59
2023-02-25T09:25:10.344Z,95793.47
2023-02-25T09:27:38.677Z,95785.50
2023-02-25T09:30:08.830Z,95786.78
2023-02-25T09:32:38.703Z,95786.78
2023-02-25T09:35:09.483Z,95789.38
2023-02-25T09:37:37.765Z,95782.28
2023-02-25T09:40:09.529Z,95792.19
2023-02-25T09:42:54.695Z,95799.16
2023-02-25T09:45:27.344Z,95790.59
2023-02-25T09:48:02.101Z,95791.72
2023-02-25T09:50:38.285Z,95800.16
2023-02-25T09:53:15.313Z,95794.31
2023-02-25T09:55:48.806Z,95794.81
2023-02-25T09:58:27.728Z,95798.81
2023-02-25T10:01:06.512Z,95798.56
2023-02-25T10:03:55.689Z,95790.31
2023-02-25T10:06:31.255Z,95800.69
2023-02-25T10:09:15.054Z,95792.56
2023-02-25T10:11:54.103Z,95794.03
2023-02-25T10:14:43.147Z,95792.16
2023-02-25T10:17:23.951Z,95789.25
2023-02-25T10:20:38.719Z,95786.84
2023-02-25T10:23:23.676Z,95788.94
2023-02-25T10:26:07.361Z,95787.25
2023-02-25T10:28:37.050Z,95788.06
2023-02-25T10:31:13.902Z,95779.59
2023-02-25T10:33:46.369Z,95779.91
2023-02-25T10:36:19.781Z,95777.59
2023-02-25T10:38:50.944Z,95777.72
2023-02-25T10:41:22.704Z,95774.53
2023-02-25T10:43:53.142Z,95768.81
2023-02-25T10:46:30.411Z,95772.38
2023-02-25T10:49:01.272Z,95759.78
2023-02-25T10:51:30.945Z,95762.03
2023-02-25T10:54:08.492Z,95759.03
2023-02-25T10:56:44.438Z,95759.56
2023-02-25T10:59:31.349Z,95755.75
2023-02-25T11:02:02.876Z,95752.09
2023-02-25T11:04:38.457Z,95752.75
2023-02-25T11:07:31.609Z,95744.47
2023-02-25T11:10:17.081Z,95743.81
2023-02-25T11:12:48.727Z,95745.84
2023-02-25T11:15:44.386Z,95737.25
2023-02-25T11:18:23.502Z,95732.66
2023-02-25T11:20:56.018Z,95735.19
2023-02-25T11:23:33.485Z,95719.94
2023-02-25T11:26:02.773Z,95717.38
2023-02-25T11:28:38.904Z,95719.13
2023-02-25T11:31:13.872Z,95721.00
2023-02-25T11:33:50.589Z,95726.50
2023-02-25T11:36:28.088Z,95727.41
2023-02-25T11:39:20.293Z,95714.47
2023-02-25T11:41:51.834Z,95709.78
2023-02-25T11:44:31.749Z,95706.41
2023-02-25T11:47:19.774Z,95706.53
2023-02-25T11:50:17.009Z,95711.38
2023-02-25T11:52:52.876Z,95712.53
2023-02-25T11:55:41.325Z,95696.75
2023-02-25T11:58:22.995Z,95693.75
2023-02-25T12:01:04.779Z,95692.63
2023-02-25T12:04:07.872Z,95684.13
2023-02-25T12:07:04.846Z,95683.91
2023-02-25T12:10:20.497Z,95685.75
2023-02-25T12:14:00.285Z,95696.84
2023-02-25T12:17:07.639Z,95692.25
2023-02-25T12:20:19.909Z,95695.34
2023-02-25T12:23:29.066Z,95691.63
2023-02-25T12:26:09.912Z,95695.09
2023-02-25T12:29:04.711Z,95687.66
2023-02-25T12:32:13.989Z,95694.31
2023-02-25T12:35:23.729Z,95687.72
2023-02-25T12:38:23.222Z,95693.06
2023-02-25T12:41:18.519Z,95695.66
2023-02-25T12:43:54.318Z,95692.66
2023-02-25T12:46:54.336Z,95696.69
2023-02-25T12:49:58.023Z,95696.00
2023-02-25T12:52:39.779Z,95697.44
2023-02-25T12:55:52.706Z,95690.78
2023-02-25T12:58:40.486Z,95691.84
2023-02-25T13:01:31.776Z,95673.69
2023-02-25T13:04:40.351Z,95683.25
2023-02-25T13:07:45.176Z,95669.22
2023-02-25T13:10:37.032Z,95667.75
2023-02-25T13:13:40.831Z,95663.72
2023-02-25T13:16:33.920Z,95675.34
2023-02-25T13:19:36.963Z,95674.41
2023-02-25T13:22:24.871Z,95677.16
2023-02-25T13:25:13.923Z,95676.00
2023-02-25T13:28:11.533Z,95675.00
2023-02-25T13:30:58.193Z,95675.00
2023-02-25T13:33:56.567Z,95676.25
2023-02-25T13:36:59.223Z,95678.63
2023-02-25T13:39:50.131Z,95676.53
2023-02-25T13:42:55.723Z,95691.63
2023-02-25T13:45:54.207Z,95690.88
2023-02-25T13:49:07.763Z,95687.03
2023-02-25T13:52:16.220Z,95686.75
2023-02-25T13:55:07.062Z,95681.63
2023-02-25T13:58:13.902Z,95687.19
2023-02-25T14:01:10.415Z,95691.88
2023-02-25T14:04:39.279Z,95695.53
2023-02-25T14:07:38.680Z,95697.97
2023-02-25T14:10:45.888Z,95696.34
2023-02-25T14:13:59.596Z,95690.00
2023-02-25T14:16:51.999Z,95697.63
2023-02-25T14:19:41.556Z,95687.66
2023-02-25T14:22:30.327Z,95691.56
2023-02-25T14:25:15.630Z,95694.44
2023-02-25T14:28:00.266Z,95686.00
2023-02-25T14:30:44.657Z,95691.72
2023-02-25T14:33:39.983Z,95687.44
2023-02-25T14:36:29.738Z,95694.13
2023-02-25T14:39:24.029Z,95689.19
2023-02-25T14:42:18.343Z,95689.66
2023-02-25T14:45:00.213Z,95701.91
2023-02-25T14:47:35.547Z,95707.09
2023-02-25T14:50:15.746Z,95699.31
2023-02-25T14:53:31.350Z,95714.75
2023-02-25T14:56:53.060Z,95747.38
2023-02-25T15:00:05.657Z,95751.91
2023-02-25T15:03:02.128Z,95757.69
2023-02-25T15:05:56.819Z,95765.19
2023-02-25T15:09:08.273Z,95785.66
2023-02-25T15:12:05.989Z,95786.16
2023-02-25T15:15:29.096Z,95797.16
2023-02-25T15:18:58.317Z,95799.44
2023-02-25T15:21:44.359Z,95801.56
2023-02-25T15:24:41.722Z,95795.03
2023-02-25T15:27:48.949Z,95797.19
2023-02-25T15:30:20.903Z,95799.31
2023-02-25T15:33:15.990Z,95796.25
2023-02-25T15:36:00.891Z,95803.91
2023-02-25T15:38:45.716Z,95805.78
2023-02-25T15:41:42.192Z,95796.03
2023-02-25T15:44:46.254Z,95814.03
2023-02-25T15:47:28.704Z,95810.75
2023-02-25T15:50:01.365Z,95813.25
2023-02-25T15:53:00.452Z,95808.69
2023-02-25T15:55:41.544Z,95814.88
2023-02-25T15:58:52.187Z,95820.72
2023-02-25T16:01:42.771Z,95816.44
2023-02-25T16:04:51.266Z,95815.47
2023-02-25T16:07:29.903Z,95811.13
2023-02-25T16:10:03.701Z,95813.72
2023-02-25T16:12:32.422Z,95817.22
2023-02-25T16:15:03.655Z,95818.84
2023-02-25T16:17:36.560Z,95814.97
2023-02-25T16:20:23.215Z,95836.91
2023-02-25T16:22:59.425Z,95847.88
2023-02-25T16:25:48.254Z,95842.41
2023-02-25T16:28:34.696Z,95841.22
2023-02-25T16:31:15.679Z,95844.81
2023-02-25T16:33:55.825Z,95848.34
2023-02-25T16:36:39.195Z,95850.19
2023-02-25T16:39:15.952Z,95849.25
2023-02-25T16:41:44.723Z,95847.59
2023-02-25T16:44:21.592Z,95850.66
2023-02-25T16:46:54.588Z,95849.84
2023-02-25T16:49:33.677Z,95859.81
2023-02-25T16:52:02.549Z,95857.69
2023-02-25T16:54:37.642Z,95857.72
2023-02-25T16:57:09.763Z,95867.22
2023-02-25T16:59:39.880Z,95874.63
2023-02-25T17:02:25.590Z,95876.66
2023-02-25T17:04:56.993Z,95891.09
2023-02-25T17:07:28.672Z,95899.66
2023-02-25T17:10:00.849Z,95897.56
2023-02-25T17:12:36.939Z,95897.84
2023-02-25T17:15:17.479Z,95900.69
2023-02-25T17:17:47.741Z,95896.09
2023-02-25T17:20:24.570Z,95896.75
2023-02-25T17:22:53.831Z,95900.69
2023-02-25T17:25:38.363Z,95901.56
2023-02-25T17:28:09.592Z,95912.06
2023-02-25T17:30:46.251Z,95915.69
2023-02-25T17:33:27.029Z,95915.75
2023-02-25T17:36:02.924Z,95928.63
2023-02-25T17:38:31.756Z,95926.22
2023-02-25T17:41:00.544Z,95931.88
2023-02-25T17:43:37.259Z,95927.94
2023-02-25T17:46:18.640Z,95937.09
2023-02-25T17:48:55.851Z,95941.97
2023-02-25T17:51:33.850Z,95932.19
2023-02-25T17:54:08.739Z,95946.41
2023-02-25T17:56:38.110Z,95938.91
2023-02-25T17:59:09.032Z,95951.59
2023-02-25T18:01:49.525Z,95950.19
2023-02-25T18:04:26.188Z,95960.53
2023-02-25T18:06:56.418Z,95960.97
2023-02-25T18:09:39.418Z,95964.16
2023-02-25T18:12:21.325Z,95977.06
2023-02-25T18:14:56.552Z,95972.59
2023-02-25T18:17:29.753Z,95978.72
2023-02-25T18:20:01.138Z,95975.19
2023-02-25T18:22:49.369Z,95975.56
2023-02-25T18:25:35.602Z,95970.91
2023-02-25T18:28:06.791Z,95975.41
2023-02-25T18:30:35.184Z,95980.50
2023-02-25T18:33:03.476Z,95973.13
2023-02-25T18:35:34.537Z,95968.50
2023-02-25T18:38:04.338Z,95973.06
2023-02-25T18:40:36.891Z,95976.41
2023-02-25T18:43:06.928Z,95969.94
2023-02-25T18:45:36.209Z,95972.94
2023-02-25T18:48:07.220Z,95974.41
2023-02-25T18:50:35.755Z,95979.72
2023-02-25T18:53:05.412Z,95980.06
2023-02-25T18:55:35.196Z,95977.31
2023-02-25T18:58:04.894Z,95981.97
2023-02-25T19:00:33.323Z,95980.66
2023-02-25T19:03:05.307Z,95988.44
2023-02-25T19:05:33.932Z,95990.50
2023-02-25T19:08:02.233Z,95986.78
2023-02-25T19:10:34.349Z,95990.34
2023-02-25T19:13:08.964Z,96000.25
2023-02-25T19:15:37.746Z,95990.28
2023-02-25T19:18:06.386Z,95986.38
2023-02-25T19:20:34.830Z,95997.16
2023-02-25T19:23:04.575Z,95990.22
2023-02-25T19:25:37.250Z,95996.09
2023-02-25T19:28:07.725Z,95989.94
2023-02-25T19:30:39.949Z,95993.75
2023-02-25T19:33:11.020Z,95999.22
2023-02-25T19:35:43.152Z,96000.31
2023-02-25T19:38:16.806Z,96013.28
2023-02-25T19:40:47.922Z,96020.06
2023-02-25T19:43:18.134Z,96020.75
2023-02-25T19:45:47.214Z,96021.25
2023-02-25T19:48:15.628Z,96028.44
2023-02-25T19:50:44.180Z,96029.69
2023-02-25T19:53:12.706Z,96030.28
2023-02-25T19:55:43.535Z,96036.00
2023-02-25T19:58:13.295Z,96035.47
2023-02-25T20:00:46.052Z,96041.38
2023-02-25T20:03:16.362Z,96048.13
2023-02-25T20:05:48.796Z,96048.47
2023-02-25T20:08:17.140Z,96045.22
2023-02-25T20:10:46.013Z,96056.53
2023-02-25T20:13:15.882Z,96049.53
2023-02-25T20:15:44.212Z,96047.97
2023-02-25T20:18:12.455Z,96056.88
2023-02-25T20:20:42.966Z,96059.31
2023-02-25T20:23:11.518Z,96064.41
2023-02-25T20:25:39.881Z,96060.09
2023-02-25T20:28:08.720Z,96058.03
2023-02-25T20:30:38.604Z,96070.31
2023-02-25T20:33:07.261Z,96062.31
2023-02-25T20:35:36.091Z,96063.16
2023-02-25T20:38:23.629Z,96070.34
2023-02-25T20:40:52.183Z,96079.53
2023-02-25T20:43:20.892Z,96078.69
2023-02-25T20:45:51.121Z,96079.72
2023-02-25T20:48:29.787Z,96084.28
2023-02-25T20:50:58.972Z,96081.88
2023-02-25T20:53:27.729Z,96084.34
2023-02-25T20:55:58.682Z,96080.03
2023-02-25T20:58:26.998Z,96087.81
2023-02-25T21:00:57.278Z,96095.06
2023-02-25T21:03:25.596Z,96098.28
2023-02-25T21:05:54.023Z,96101.56
2023-02-25T21:08:26.059Z,96106.91
2023-02-25T21:10:54.342Z,96105.78
2023-02-25T21:13:22.666Z,96107.09
2023-02-25T21:15:51.131Z,96106.88
2023-02-25T21:18:20.803Z,96112.75
2023-02-25T21:20:49.116Z,96106.78
2023-02-25T21:23:17.728Z,96108.41
2023-02-25T21:25:46.819Z,96107.88
2023-02-25T21:28:15.135Z,96112.53
2023-02-25T21:30:43.612Z,96120.06
2023-02-25T21:33:15.470Z,96118.97
2023-02-25T21:35:55.699Z,96120.38
2023-02-25T21:38:24.494Z,96119.34
2023-02-25T21:40:52.899Z,96115.34
2023-02-25T21:43:23.045Z,96120.69
2023-02-25T21:45:55.928Z,96136.03
2023-02-25T21:48:26.173Z,96148.19
2023-02-25T21:50:55.927Z,96149.00
2023-02-25T21:53:27.428Z,96148.59
2023-02-25T21:55:56.383Z,96145.16
2023-02-25T21:58:25.338Z,96151.56
2023-02-25T22:00:53.956Z,96143.81
2023-02-25T22:03:22.484Z,96140.56
2023-02-25T22:05:51.588Z,96141.66
2023-02-25T22:08:21.248Z,96141.38
2023-02-25T22:10:49.833Z,96136.81
2023-02-25T22:13:18.390Z,96142.19
2023-02-25T22:15:48.754Z,96134.16
2023-02-25T22:18:17.066Z,96137.06
2023-02-25T22:20:45.350Z,96131.44
2023-02-25T22:23:13.998Z,96141.91
2023-02-25T22:25:43.987Z,96135.16
2023-02-25T22:28:12.551Z,96147.28
2023-02-25T22:30:40.852Z,96149.19
2023-02-25T22:33:12.907Z,96147.03
2023-02-25T22:35:41.227Z,96147.00
2023-02-25T22:38:12.016Z,96155.31
2023-02-25T22:40:41.201Z,96152.66
2023-02-25T22:43:10.930Z,96150.59
2023-02-25T22:45:39.454Z,96158.34
2023-02-25T22:48:08.073Z,96150.56
2023-02-25T22:50:36.351Z,96155.41
2023-02-25T22:53:04.734Z,96150.56
2023-02-25T22:55:34.871Z,96154.84
2023-02-25T22:58:04.958Z,96152.44
2023-02-25T23:00:40.583Z,96148.69
2023-02-25T23:03:10.071Z,96148.16
2023-02-25T23:05:38.777Z,96141.97
2023-02-25T23:08:07.495Z,96151.09
2023-02-25T23:10:36.267Z,96154.84
2023-02-25T23:13:08.069Z,96157.56
2023-02-25T23:15:40.370Z,96161.31
2023-02-25T23:18:10.933Z,96167.50
2023-02-25T23:20:40.046Z,96168.56
2023-02-25T23:23:09.721Z,96172.31
2023-02-25T23:25:42.637Z,96172.84
2023-02-25T23:28:11.469Z,96179.28
2023-02-25T23:30:41.092Z,96172.59
2023-02-25T23:33:11.561Z,96181.97
2023-02-25T23:35:43.314Z,96174.19
2023-02-25T23:38:11.656Z,96182.50
2023-02-25T23:40:40.430Z,96178.47
2023-02-25T23:43:08.754Z,96195.91
2023-02-25T23:45:37.219Z,96184.09
2023-02-25T23:48:07.544Z,96193.75
2023-02-25T23:50:36.079Z,96182.47
2023-02-25T23:53:04.378Z,96186.19
2023-02-25T23:55:32.807Z,96185.13
2023-02-25T23:58:01.327Z,96189.38
